Time;durP1;ratioP1;P1;durP2;ratioP2;P2;SDS_P1;SDS_P2;PMS_P1;PMS_P2;Temp;Humidity;BMP_temperature;BMP_pressure;BME280_temperature;BME280_humidity;BME280_pressure;Samples;Min_cycle;Max_cycle;Signal;HPM_P1;HPM_P2
2021/05/26 00:01:23;;;;;;;9.93;2.78;;;10.60;79.80;;;;;;5017204;28;20034;-74
2021/05/26 00:03:50;;;;;;;13.13;3.47;;;10.60;79.90;;;;;;5021303;28;20036;-74
2021/05/26 00:06:16;;;;;;;9.35;2.92;;;10.60;79.90;;;;;;5025546;28;20030;-75
2021/05/26 00:08:42;;;;;;;9.00;2.55;;;10.60;80.10;;;;;;5025390;28;20488;-75
2021/05/26 00:11:10;;;;;;;9.90;2.88;;;10.60;80.10;;;;;;5022864;28;20046;-75
2021/05/26 00:13:36;;;;;;;10.95;2.70;;;10.60;80.20;;;;;;5025735;28;20111;-74
2021/05/26 00:16:03;;;;;;;10.32;2.97;;;10.60;80.00;;;;;;5023160;28;20492;-77
2021/05/26 00:18:29;;;;;;;10.15;3.10;;;10.60;80.20;;;;;;5017228;28;20501;-75
2021/05/26 00:20:54;;;;;;;9.88;2.75;;;10.60;80.20;;;;;;4998373;28;20109;-75
2021/05/26 00:23:21;;;;;;;11.02;3.28;;;10.60;79.90;;;;;;5006053;28;25134;-75
2021/05/26 00:25:47;;;;;;;7.68;2.33;;;10.60;80.10;;;;;;5019751;28;20034;-74
2021/05/26 00:28:13;;;;;;;9.90;2.88;;;10.60;80.00;;;;;;5014944;28;20435;-75
2021/05/26 00:30:48;;;;;;;8.43;2.47;;;10.60;79.90;;;;;;5019544;28;20041;-74
2021/05/26 00:33:14;;;;;;;8.27;2.60;;;10.60;80.00;;;;;;5019473;28;20033;-74
2021/05/26 00:35:40;;;;;;;6.88;2.38;;;10.50;79.90;;;;;;5025454;28;20033;-75
2021/05/26 00:38:06;;;;;;;8.95;2.80;;;10.50;79.70;;;;;;5014147;28;20448;-75
2021/05/26 00:40:32;;;;;;;9.68;2.53;;;10.50;80.00;;;;;;5019546;28;20053;-74
2021/05/26 00:42:58;;;;;;;5.25;2.25;;;10.50;80.00;;;;;;5004188;28;20044;-76
2021/05/26 00:45:25;;;;;;;8.60;2.28;;;10.50;80.00;;;;;;5017536;28;20038;-75
2021/05/26 00:47:51;;;;;;;5.85;2.08;;;10.40;79.90;;;;;;5007476;28;20036;-75
2021/05/26 00:50:20;;;;;;;7.00;2.40;;;10.40;80.20;;;;;;5010877;28;20044;-75
2021/05/26 00:52:46;;;;;;;7.32;2.70;;;10.40;80.20;;;;;;5007982;28;20034;-75
2021/05/26 00:55:17;;;;;;;7.65;2.30;;;10.50;79.90;;;;;;5011494;28;20499;-74
2021/05/26 00:57:44;;;;;;;9.77;3.38;;;10.40;79.60;;;;;;5005549;28;20038;-74
2021/05/26 01:00:14;;;;;;;8.80;2.30;;;10.50;79.70;;;;;;4992521;28;20130;-75
2021/05/26 01:02:40;;;;;;;8.30;2.70;;;10.50;80.00;;;;;;4998076;28;20523;-76
2021/05/26 01:05:07;;;;;;;6.68;2.72;;;10.40;79.70;;;;;;5013111;28;20037;-77
2021/05/26 01:07:33;;;;;;;7.10;2.35;;;10.40;80.10;;;;;;5025605;28;20076;-75
2021/05/26 01:10:00;;;;;;;6.38;2.13;;;10.30;80.00;;;;;;5026161;28;20174;-78
2021/05/26 01:12:26;;;;;;;6.75;2.50;;;10.30;80.10;;;;;;5015945;28;20128;-75
2021/05/26 01:14:51;;;;;;;7.50;2.35;;;10.30;80.20;;;;;;5031872;28;20096;-74
2021/05/26 01:17:17;;;;;;;8.15;2.80;;;10.20;80.40;;;;;;5019206;28;20025;-75
2021/05/26 01:19:43;;;;;;;8.15;2.60;;;10.20;80.50;;;;;;5026663;28;20442;-74
2021/05/26 01:22:09;;;;;;;7.70;2.88;;;10.30;80.60;;;;;;5021010;28;20052;-75
2021/05/26 01:24:35;;;;;;;8.98;2.38;;;10.20;80.80;;;;;;5023521;28;20053;-75
2021/05/26 01:27:02;;;;;;;6.72;2.40;;;10.20;80.90;;;;;;5019762;28;20453;-75
2021/05/26 01:29:28;;;;;;;8.10;2.08;;;10.20;81.20;;;;;;5025544;28;20536;-74
2021/05/26 01:31:54;;;;;;;5.95;2.05;;;10.10;81.40;;;;;;5014291;28;20037;-74
2021/05/26 01:34:21;;;;;;;5.88;2.25;;;10.10;81.50;;;;;;5031433;28;20083;-75
2021/05/26 01:36:48;;;;;;;5.88;2.13;;;10.10;81.80;;;;;;5028447;28;20036;-75
2021/05/26 01:39:16;;;;;;;5.93;2.28;;;10.10;81.90;;;;;;5035420;28;20033;-75
2021/05/26 01:41:42;;;;;;;6.53;2.60;;;10.10;82.20;;;;;;5028878;28;20052;-75
2021/05/26 01:44:08;;;;;;;6.63;2.38;;;10.10;82.50;;;;;;5020085;28;20033;-75
2021/05/26 01:46:36;;;;;;;4.38;2.20;;;10.00;82.60;;;;;;4997443;28;20088;-75
2021/05/26 01:49:06;;;;;;;8.10;2.40;;;10.00;82.60;;;;;;4999441;28;20587;-75
2021/05/26 01:51:33;;;;;;;8.77;3.08;;;10.00;82.80;;;;;;5012708;28;20041;-74
2021/05/26 01:53:59;;;;;;;7.70;2.50;;;9.90;82.80;;;;;;5029255;28;20029;-75
2021/05/26 01:56:27;;;;;;;6.82;2.40;;;9.90;82.90;;;;;;5022971;28;20037;-76
2021/05/26 01:58:54;;;;;;;7.90;3.05;;;9.90;82.90;;;;;;5025236;28;20046;-76
2021/05/26 02:01:22;;;;;;;6.10;2.65;;;9.80;83.00;;;;;;5027191;28;20440;-76
2021/05/26 02:03:49;;;;;;;6.53;2.42;;;9.80;83.20;;;;;;5019206;28;20034;-76
2021/05/26 02:06:16;;;;;;;6.38;2.60;;;9.70;83.40;;;;;;5024046;28;20457;-75
2021/05/26 02:08:44;;;;;;;5.93;2.75;;;9.70;83.50;;;;;;5030131;28;20049;-76
2021/05/26 02:14:09;;;;;;;8.40;3.00;;;9.60;84.00;;;;;;5027291;28;20028;-76
2021/05/26 02:16:36;;;;;;;7.10;2.40;;;9.60;84.10;;;;;;5027301;28;20034;-76
2021/05/26 02:19:03;;;;;;;6.03;2.83;;;9.60;84.20;;;;;;5025089;28;20105;-75
2021/05/26 02:21:29;;;;;;;7.80;3.10;;;9.50;84.30;;;;;;5030418;28;20144;-77
2021/05/26 02:23:55;;;;;;;6.97;2.55;;;9.50;84.50;;;;;;5033499;28;20029;-79
2021/05/26 02:26:21;;;;;;;8.45;3.08;;;9.40;84.60;;;;;;5009309;28;20382;-77
2021/05/26 02:28:46;;;;;;;10.55;3.03;;;9.40;84.70;;;;;;5029488;28;20128;-75
2021/05/26 02:31:12;;;;;;;8.18;2.95;;;9.40;84.70;;;;;;5012882;28;20077;-75
2021/05/26 02:33:39;;;;;;;7.63;3.28;;;9.40;84.90;;;;;;5010969;28;20036;-75
2021/05/26 02:36:05;;;;;;;9.23;2.97;;;9.30;85.00;;;;;;5030093;28;20037;-76
2021/05/26 02:38:32;;;;;;;7.88;3.00;;;9.40;85.20;;;;;;5040993;28;20385;-76
2021/05/26 02:40:58;;;;;;;7.47;3.05;;;9.40;85.40;;;;;;5044762;28;20041;-76
2021/05/26 02:43:24;;;;;;;8.00;3.05;;;9.40;85.50;;;;;;5030735;28;20030;-79
2021/05/26 02:45:50;;;;;;;8.02;3.00;;;9.30;85.50;;;;;;5009250;28;20397;-76
2021/05/26 02:48:15;;;;;;;10.15;3.20;;;9.30;85.60;;;;;;5002749;28;20033;-75
2021/05/26 02:50:41;;;;;;;10.75;3.47;;;9.30;85.70;;;;;;5000298;28;20046;-76
2021/05/26 02:53:07;;;;;;;8.68;3.47;;;9.30;85.60;;;;;;5007157;28;20044;-76
2021/05/26 02:55:33;;;;;;;8.82;3.45;;;9.30;85.60;;;;;;5002140;28;20034;-76
2021/05/26 02:57:58;;;;;;;9.27;2.92;;;9.30;85.80;;;;;;5003405;28;20033;-77
2021/05/26 03:00:25;;;;;;;11.48;3.08;;;9.30;85.80;;;;;;5006791;28;20045;-75
2021/05/26 03:02:51;;;;;;;9.38;3.45;;;9.20;85.90;;;;;;4998110;28;20080;-75
2021/05/26 03:05:19;;;;;;;6.43;3.03;;;9.30;85.80;;;;;;5020951;28;20386;-78
2021/05/26 03:07:46;;;;;;;8.38;2.70;;;9.30;85.90;;;;;;5018407;28;20080;-76
2021/05/26 03:10:15;;;;;;;8.85;3.53;;;9.30;85.90;;;;;;5017140;28;20053;-75
2021/05/26 03:12:41;;;;;;;7.97;3.17;;;9.30;85.90;;;;;;5024775;28;20116;-76
2021/05/26 03:15:09;;;;;;;7.50;3.60;;;9.30;85.90;;;;;;5024806;28;20113;-76
2021/05/26 03:17:36;;;;;;;9.25;3.05;;;9.30;85.90;;;;;;5030659;28;20075;-76
2021/05/26 03:20:04;;;;;;;9.25;3.67;;;9.30;85.80;;;;;;5027576;28;20099;-79
2021/05/26 03:22:30;;;;;;;7.82;3.50;;;9.40;86.00;;;;;;5020782;28;20075;-76
2021/05/26 03:24:56;;;;;;;8.82;3.60;;;9.40;86.00;;;;;;5023785;28;20034;-76
2021/05/26 03:27:26;;;;;;;8.18;3.38;;;9.40;85.90;;;;;;5026300;28;20040;-76
2021/05/26 03:29:52;;;;;;;9.02;3.42;;;9.40;86.00;;;;;;5022129;28;20143;-76
2021/05/26 03:32:18;;;;;;;10.25;3.85;;;9.40;86.00;;;;;;5027059;28;20041;-76
2021/05/26 03:34:44;;;;;;;7.93;2.88;;;9.40;86.00;;;;;;5022716;28;20037;-76
2021/05/26 03:37:13;;;;;;;8.10;2.90;;;9.40;86.10;;;;;;5010821;28;20050;-76
2021/05/26 03:39:39;;;;;;;9.15;3.42;;;9.40;86.00;;;;;;5021162;28;20038;-76
2021/05/26 03:42:05;;;;;;;9.70;3.92;;;9.40;86.00;;;;;;5014286;28;20030;-76
2021/05/26 03:44:31;;;;;;;10.43;3.55;;;9.40;86.00;;;;;;5006607;28;20048;-76
2021/05/26 03:46:57;;;;;;;8.10;3.08;;;9.50;86.00;;;;;;5015093;28;20065;-76
2021/05/26 03:49:22;;;;;;;8.30;4.18;;;9.50;86.10;;;;;;5022444;28;20437;-76
2021/05/26 03:51:48;;;;;;;6.80;3.45;;;9.50;86.10;;;;;;5031783;28;20403;-76
2021/05/26 03:54:14;;;;;;;9.13;3.50;;;9.50;86.10;;;;;;5003617;28;20030;-76
2021/05/26 03:56:41;;;;;;;10.63;4.03;;;9.50;86.00;;;;;;5026425;28;20033;-76
2021/05/26 03:59:08;;;;;;;9.60;4.15;;;9.60;86.10;;;;;;5022034;28;20075;-76
2021/05/26 04:01:34;;;;;;;10.73;4.75;;;9.60;86.00;;;;;;5017070;28;20125;-77
2021/05/26 04:04:00;;;;;;;10.50;4.43;;;9.60;86.00;;;;;;5026832;28;20119;-76
2021/05/26 04:06:26;;;;;;;9.82;4.53;;;9.60;86.20;;;;;;5018581;28;20029;-76
2021/05/26 04:08:51;;;;;;;8.10;4.13;;;9.60;86.00;;;;;;5019942;28;20053;-75
2021/05/26 04:11:17;;;;;;;10.93;4.05;;;9.60;86.00;;;;;;5018001;28;20474;-75
2021/05/26 04:13:43;;;;;;;9.38;4.70;;;9.70;86.00;;;;;;5016768;28;20080;-78
2021/05/26 04:16:09;;;;;;;14.90;5.28;;;9.70;85.80;;;;;;5021702;28;20033;-74
2021/05/26 04:18:35;;;;;;;10.65;4.68;;;9.70;85.90;;;;;;5019967;28;20385;-75
2021/05/26 04:21:01;;;;;;;13.20;4.38;;;9.70;85.80;;;;;;5019621;28;20060;-75
2021/05/26 04:23:26;;;;;;;12.00;4.63;;;9.80;85.80;;;;;;5028859;28;20033;-75
2021/05/26 04:25:52;;;;;;;10.75;4.55;;;9.80;85.70;;;;;;5025414;28;20040;-74
2021/05/26 04:28:19;;;;;;;9.63;3.85;;;9.80;85.70;;;;;;5018561;28;20072;-74
2021/05/26 04:30:46;;;;;;;8.93;4.15;;;9.90;85.60;;;;;;5024917;28;20111;-75
2021/05/26 04:33:12;;;;;;;10.25;4.00;;;9.90;85.70;;;;;;5020692;28;20026;-75
2021/05/26 04:35:37;;;;;;;11.60;5.47;;;9.90;85.70;;;;;;5022924;28;20032;-76
2021/05/26 04:38:03;;;;;;;9.40;3.97;;;10.00;85.60;;;;;;5023367;28;20025;-76
2021/05/26 04:40:30;;;;;;;9.02;5.40;;;10.10;85.50;;;;;;5018610;28;20369;-75
2021/05/26 04:42:55;;;;;;;13.00;5.57;;;10.10;85.30;;;;;;5024679;28;20042;-74
2021/05/26 04:45:21;;;;;;;12.07;5.43;;;10.10;85.00;;;;;;5029176;28;20346;-75
2021/05/26 04:47:47;;;;;;;9.10;5.10;;;10.20;85.00;;;;;;5028614;28;20025;-74
2021/05/26 04:50:13;;;;;;;8.80;4.95;;;10.10;85.00;;;;;;5006967;28;20038;-75
2021/05/26 04:52:39;;;;;;;9.75;5.43;;;10.20;84.70;;;;;;4998833;28;20033;-75
2021/05/26 04:55:05;;;;;;;11.13;5.97;;;10.20;84.90;;;;;;4998747;28;20029;-77
2021/05/26 04:57:30;;;;;;;12.00;5.50;;;10.30;85.00;;;;;;5001324;28;20027;-75
2021/05/26 04:59:56;;;;;;;8.98;4.80;;;10.40;84.80;;;;;;5012640;28;20057;-75
2021/05/26 05:02:22;;;;;;;10.02;4.55;;;10.50;84.40;;;;;;5019340;28;20025;-78
2021/05/26 05:04:47;;;;;;;8.13;4.90;;;10.60;83.70;;;;;;5025794;28;20033;-75
2021/05/26 05:07:13;;;;;;;10.60;4.93;;;10.60;83.40;;;;;;5019020;28;20049;-75
2021/05/26 05:09:39;;;;;;;8.25;4.28;;;10.70;83.70;;;;;;5019086;28;20103;-75
2021/05/26 05:12:05;;;;;;;9.80;4.95;;;10.70;83.00;;;;;;5013286;28;20042;-76
2021/05/26 05:14:30;;;;;;;9.80;4.90;;;10.70;83.00;;;;;;5027193;28;20044;-79
2021/05/26 05:16:56;;;;;;;10.40;5.10;;;10.90;82.90;;;;;;5023722;28;20062;-75
2021/05/26 05:19:22;;;;;;;13.07;6.10;;;11.40;82.60;;;;;;5037932;28;20044;-75
2021/05/26 05:21:48;;;;;;;7.97;4.50;;;12.60;79.70;;;;;;5027123;28;20133;-75
2021/05/26 05:24:13;;;;;;;10.02;6.03;;;13.00;76.10;;;;;;5032720;28;20029;-75
2021/05/26 05:26:39;;;;;;;8.18;4.85;;;13.10;75.50;;;;;;5029522;28;20041;-75
2021/05/26 05:29:04;;;;;;;10.75;5.45;;;12.90;74.70;;;;;;5027911;28;20066;-75
2021/05/26 05:31:31;;;;;;;11.10;5.75;;;12.50;76.00;;;;;;5026471;28;20049;-75
2021/05/26 05:33:57;;;;;;;9.15;5.15;;;12.90;77.20;;;;;;5018259;28;20133;-71
2021/05/26 05:36:23;;;;;;;8.55;5.72;;;13.70;73.40;;;;;;5017539;28;20036;-74
2021/05/26 05:38:49;;;;;;;9.85;6.15;;;14.10;71.70;;;;;;5021906;28;20104;-71
2021/05/26 05:41:15;;;;;;;12.02;6.05;;;14.30;70.10;;;;;;5026343;28;20465;-71
2021/05/26 05:43:40;;;;;;;11.10;6.63;;;14.50;70.30;;;;;;5027815;28;20040;-70
2021/05/26 05:46:06;;;;;;;10.35;7.03;;;14.60;69.00;;;;;;5022839;28;20033;-73
2021/05/26 05:48:32;;;;;;;10.63;6.85;;;14.80;68.20;;;;;;5025959;28;20064;-71
2021/05/26 05:50:57;;;;;;;11.23;7.07;;;14.70;68.50;;;;;;5032457;28;20034;-70
2021/05/26 05:53:23;;;;;;;10.68;7.00;;;14.40;68.30;;;;;;5029990;28;20452;-72
2021/05/26 05:55:49;;;;;;;10.75;7.28;;;13.60;70.90;;;;;;5031231;28;20346;-70
2021/05/26 05:58:25;;;;;;;10.48;6.95;;;13.10;72.80;;;;;;5028216;28;20371;-70
2021/05/26 06:00:50;;;;;;;10.70;7.00;;;12.80;74.00;;;;;;5023310;28;20128;-70
2021/05/26 06:03:16;;;;;;;11.60;8.00;;;12.60;75.20;;;;;;5021645;28;20108;-70
2021/05/26 06:05:42;;;;;;;11.15;7.20;;;12.70;75.00;;;;;;5026930;28;20026;-70
2021/05/26 06:08:07;;;;;;;10.80;6.80;;;12.80;74.80;;;;;;5036349;28;20028;-70
2021/05/26 06:10:33;;;;;;;10.45;7.15;;;12.90;74.90;;;;;;5011574;28;20056;-70
2021/05/26 06:13:00;;;;;;;11.13;6.50;;;13.00;74.50;;;;;;5022448;28;20034;-70
2021/05/26 06:15:25;;;;;;;11.40;7.10;;;13.10;74.70;;;;;;5025210;28;20449;-72
2021/05/26 06:17:51;;;;;;;11.73;7.20;;;13.10;74.40;;;;;;5025085;28;20083;-71
2021/05/26 06:20:17;;;;;;;11.52;7.03;;;13.30;73.90;;;;;;5029371;28;20037;-71
2021/05/26 06:22:45;;;;;;;9.98;6.18;;;13.50;73.00;;;;;;5030884;28;20417;-69
2021/05/26 06:25:11;;;;;;;10.15;6.43;;;13.40;72.70;;;;;;5028059;28;20061;-69
2021/05/26 06:27:37;;;;;;;13.88;7.32;;;13.50;73.50;;;;;;5036226;28;20464;-69
2021/05/26 06:30:04;;;;;;;11.73;6.60;;;13.70;72.60;;;;;;5013500;28;20561;-70
2021/05/26 06:32:29;;;;;;;13.50;6.75;;;13.70;72.50;;;;;;5022808;28;20068;-70
2021/05/26 06:34:55;;;;;;;11.02;5.97;;;13.90;71.50;;;;;;5021523;28;20049;-69
2021/05/26 06:37:21;;;;;;;11.40;7.07;;;13.80;71.40;;;;;;5023013;28;20037;-69
2021/05/26 06:39:47;;;;;;;12.05;7.10;;;13.60;71.70;;;;;;5015051;28;20091;-69
2021/05/26 06:42:13;;;;;;;10.85;6.47;;;13.60;72.00;;;;;;5027658;28;20528;-73
2021/05/26 06:44:39;;;;;;;11.77;6.50;;;13.80;71.10;;;;;;5023231;28;20108;-73
2021/05/26 06:47:04;;;;;;;10.57;6.60;;;13.60;71.90;;;;;;5021368;28;20100;-76
2021/05/26 06:49:31;;;;;;;12.25;7.45;;;13.50;72.30;;;;;;5017741;28;20120;-72
2021/05/26 06:51:57;;;;;;;12.52;7.30;;;13.80;72.40;;;;;;5020269;28;20045;-70
2021/05/26 06:54:23;;;;;;;10.18;6.60;;;14.10;71.80;;;;;;5021425;28;20092;-70
2021/05/26 06:56:49;;;;;;;12.07;6.43;;;14.10;70.90;;;;;;5016731;28;20025;-70
2021/05/26 06:59:14;;;;;;;12.23;8.05;;;14.10;70.10;;;;;;5018220;28;20050;-70
2021/05/26 07:01:40;;;;;;;14.20;7.32;;;13.40;72.50;;;;;;5023215;28;20040;-71
2021/05/26 07:04:06;;;;;;;12.45;8.00;;;13.40;73.30;;;;;;5013560;28;20066;-72
2021/05/26 07:06:32;;;;;;;13.00;7.95;;;13.60;72.90;;;;;;5005293;28;20064;-71
2021/05/26 07:08:58;;;;;;;13.02;9.07;;;13.60;72.40;;;;;;5017623;28;20041;-70
2021/05/26 07:11:23;;;;;;;13.68;8.63;;;13.50;73.30;;;;;;5030955;28;20040;-70
2021/05/26 07:13:49;;;;;;;16.52;10.25;;;13.40;73.40;;;;;;5001284;28;20466;-70
2021/05/26 07:16:15;;;;;;;15.52;10.45;;;13.10;73.90;;;;;;5022572;28;20108;-70
2021/05/26 07:18:45;;;;;;;18.48;12.48;;;12.70;74.90;;;;;;5023165;28;20033;-69
2021/05/26 07:21:11;;;;;;;17.35;12.00;;;12.50;74.90;;;;;;5006493;28;20029;-69
2021/05/26 07:23:37;;;;;;;17.95;13.52;;;12.50;75.80;;;;;;5017226;28;20033;-70
2021/05/26 07:26:02;;;;;;;19.50;14.48;;;12.60;76.10;;;;;;5014394;28;20042;-70
2021/05/26 07:28:28;;;;;;;18.77;14.80;;;12.90;75.40;;;;;;5016987;28;20046;-70
2021/05/26 07:30:54;;;;;;;19.23;14.10;;;13.10;74.30;;;;;;5024030;28;20137;-70
2021/05/26 07:33:19;;;;;;;18.75;13.60;;;13.30;74.20;;;;;;4998256;28;20084;-69
2021/05/26 07:35:45;;;;;;;19.13;13.73;;;13.40;72.90;;;;;;4996320;28;20042;-70
2021/05/26 07:38:12;;;;;;;18.40;12.98;;;13.50;72.90;;;;;;4999196;28;20033;-69
2021/05/26 07:40:38;;;;;;;19.75;12.00;;;13.60;72.40;;;;;;5023854;28;20037;-71
2021/05/26 07:43:03;;;;;;;13.18;11.77;;;13.80;72.20;;;;;;5019631;28;20033;-71
2021/05/26 07:45:29;;;;;;;13.93;10.60;;;14.10;71.60;;;;;;5023405;28;20030;-70
2021/05/26 07:47:55;;;;;;;16.35;10.23;;;14.40;71.30;;;;;;5024272;28;20061;-70
2021/05/26 07:50:21;;;;;;;14.07;10.02;;;14.40;70.00;;;;;;5029207;28;21073;-69
2021/05/26 07:52:46;;;;;;;13.77;9.55;;;14.20;70.70;;;;;;5032644;28;20039;-72
2021/05/26 07:55:13;;;;;;;18.23;10.45;;;14.60;70.40;;;;;;5023448;28;20389;-73
2021/05/26 07:57:39;;;;;;;15.07;10.57;;;15.10;68.80;;;;;;5019071;28;20370;-70
2021/05/26 08:00:06;;;;;;;15.38;9.90;;;14.70;68.30;;;;;;4997421;28;20048;-71
2021/05/26 08:02:32;;;;;;;13.45;10.30;;;14.50;70.40;;;;;;4995964;28;20026;-70
2021/05/26 08:04:57;;;;;;;14.82;11.10;;;14.10;70.60;;;;;;4996694;28;20165;-70
2021/05/26 08:07:23;;;;;;;15.95;10.70;;;13.80;71.00;;;;;;4997987;28;20394;-70
2021/05/26 08:09:49;;;;;;;14.13;10.77;;;13.90;72.30;;;;;;4994229;28;20046;-71
2021/05/26 08:12:14;;;;;;;14.75;10.02;;;14.00;72.10;;;;;;5013675;28;20042;-68
2021/05/26 08:14:40;;;;;;;14.30;9.70;;;14.00;71.30;;;;;;5017546;28;20037;-69
2021/05/26 08:17:06;;;;;;;13.07;9.63;;;13.90;70.90;;;;;;5017487;28;20038;-71
2021/05/26 08:19:32;;;;;;;13.18;9.95;;;13.70;72.60;;;;;;5020664;28;20130;-69
2021/05/26 08:21:58;;;;;;;15.57;9.82;;;13.60;73.50;;;;;;5013494;28;20130;-70
2021/05/26 08:24:27;;;;;;;14.40;10.27;;;13.80;72.60;;;;;;4995096;28;20030;-69
2021/05/26 08:26:53;;;;;;;13.77;9.27;;;13.80;71.60;;;;;;4992143;28;20046;-70
2021/05/26 08:29:19;;;;;;;12.75;9.55;;;14.10;71.40;;;;;;5019702;28;20030;-70
2021/05/26 08:31:46;;;;;;;14.50;9.10;;;14.10;70.90;;;;;;5017616;28;20456;-71
2021/05/26 08:34:11;;;;;;;14.48;9.40;;;14.60;69.60;;;;;;5021733;28;20566;-70
2021/05/26 08:36:37;;;;;;;14.85;9.07;;;15.00;68.30;;;;;;5007003;28;20050;-71
2021/05/26 08:39:05;;;;;;;16.17;9.32;;;15.10;67.70;;;;;;5022993;28;20068;-70
2021/05/26 08:41:31;;;;;;;13.43;8.88;;;15.10;68.80;;;;;;5016844;28;20141;-71
2021/05/26 08:43:58;;;;;;;13.88;8.70;;;15.10;69.00;;;;;;5020476;28;20116;-71
2021/05/26 08:46:26;;;;;;;13.93;8.40;;;15.00;66.80;;;;;;5014795;28;20377;-71
2021/05/26 08:48:53;;;;;;;11.65;7.85;;;14.90;67.30;;;;;;5023523;28;20071;-71
2021/05/26 08:51:21;;;;;;;15.73;9.02;;;15.10;67.70;;;;;;5027284;28;20038;-70
2021/05/26 08:53:47;;;;;;;12.73;8.35;;;15.40;66.40;;;;;;5016260;28;20034;-71
2021/05/26 08:56:14;;;;;;;13.25;7.60;;;15.70;65.80;;;;;;5010300;28;20157;-71
2021/05/26 08:58:40;;;;;;;12.75;8.00;;;15.70;65.70;;;;;;5016797;28;20026;-71
2021/05/26 09:01:06;;;;;;;15.63;7.97;;;15.60;63.90;;;;;;5011499;28;20042;-73
2021/05/26 09:03:32;;;;;;;13.43;6.85;;;15.80;64.50;;;;;;5023324;28;20160;-71
2021/05/26 09:05:59;;;;;;;14.30;7.53;;;16.10;64.10;;;;;;5023736;28;20033;-71
2021/05/26 09:08:25;;;;;;;12.95;7.43;;;16.20;63.70;;;;;;5018388;28;20449;-75
2021/05/26 09:11:04;;;;;;;11.90;7.60;;;16.30;64.80;;;;;;5029199;28;20076;-72
2021/05/26 09:13:37;;;;;;;11.45;6.53;;;16.60;61.60;;;;;;5016438;28;20474;-74
2021/05/26 09:16:08;;;;;;;11.10;6.03;;;16.70;61.10;;;;;;5024414;28;20042;-71
2021/05/26 09:18:56;;;;;;;11.18;6.20;;;16.80;59.30;;;;;;5023922;28;20041;-73
2021/05/26 09:21:50;;;;;;;12.27;6.47;;;16.60;58.90;;;;;;5013446;28;20018;-71
2021/05/26 09:24:18;;;;;;;14.13;6.70;;;16.50;60.70;;;;;;5013974;28;20504;-72
2021/05/26 09:26:55;;;;;;;10.70;5.57;;;16.90;61.40;;;;;;5008216;28;20076;-71
2021/05/26 09:29:32;;;;;;;9.18;4.70;;;16.90;57.90;;;;;;5005805;28;20045;-71
2021/05/26 09:32:10;;;;;;;9.20;5.30;;;16.70;58.80;;;;;;5013220;28;20064;-70
2021/05/26 09:34:38;;;;;;;10.20;4.72;;;17.30;56.00;;;;;;5021325;28;20029;-70
2021/05/26 09:37:05;;;;;;;10.70;4.43;;;17.20;55.40;;;;;;5027070;28;20045;-71
2021/05/26 09:39:48;;;;;;;9.32;5.22;;;16.70;55.60;;;;;;5028126;28;20049;-73
2021/05/26 09:42:35;;;;;;;10.88;4.85;;;16.30;57.30;;;;;;5022307;28;20037;-72
2021/05/26 09:45:11;;;;;;;9.15;4.78;;;16.30;58.50;;;;;;5028734;28;20076;-72
2021/05/26 09:47:47;;;;;;;12.55;4.63;;;16.20;58.70;;;;;;5006264;28;20049;-71
2021/05/26 09:50:16;;;;;;;10.55;5.15;;;16.00;58.90;;;;;;5001127;28;20055;-71
2021/05/26 09:53:01;;;;;;;11.30;4.78;;;16.10;59.00;;;;;;5012298;28;20477;-70
2021/05/26 09:55:48;;;;;;;10.98;4.50;;;16.10;56.60;;;;;;5035759;28;20473;-71
2021/05/26 09:58:18;;;;;;;7.90;4.22;;;16.30;56.80;;;;;;5006125;28;20534;-72
2021/05/26 10:00:46;;;;;;;10.18;4.40;;;16.40;56.40;;;;;;5019316;28;20128;-70
2021/05/26 10:03:12;;;;;;;7.65;4.15;;;15.90;55.50;;;;;;5027549;28;20053;-71
2021/05/26 10:05:38;;;;;;;6.40;3.65;;;15.90;56.50;;;;;;5021657;28;20044;-72
2021/05/26 10:08:07;;;;;;;9.48;3.15;;;15.60;55.30;;;;;;5013739;28;20068;-70
2021/05/26 10:10:34;;;;;;;8.27;2.20;;;15.70;53.40;;;;;;5020638;28;20116;-70
2021/05/26 10:13:02;;;;;;;8.13;2.53;;;15.60;54.00;;;;;;5015124;28;20125;-70
2021/05/26 10:15:28;;;;;;;9.48;2.83;;;15.50;53.40;;;;;;5018906;28;20120;-70
2021/05/26 10:17:56;;;;;;;7.03;2.45;;;15.10;54.40;;;;;;5019877;28;20387;-69
2021/05/26 10:20:27;;;;;;;6.97;2.58;;;15.10;57.00;;;;;;5027081;28;20067;-69
2021/05/26 10:22:55;;;;;;;8.48;3.08;;;15.10;58.50;;;;;;5023074;28;20038;-70
2021/05/26 10:25:21;;;;;;;10.18;3.88;;;15.00;60.60;;;;;;5034894;28;20041;-71
2021/05/26 10:27:51;;;;;;;13.07;4.20;;;15.00;62.00;;;;;;5017582;28;20481;-70
2021/05/26 10:30:19;;;;;;;10.02;3.90;;;14.90;63.30;;;;;;5017368;28;20038;-69
2021/05/26 10:32:53;;;;;;;10.77;3.88;;;15.00;61.90;;;;;;5022361;28;20038;-69
2021/05/26 10:35:19;;;;;;;10.75;3.30;;;15.10;62.10;;;;;;5020975;28;20533;-70
2021/05/26 10:37:46;;;;;;;11.90;4.10;;;15.90;61.00;;;;;;5020788;28;20082;-70
2021/05/26 10:40:34;;;;;;;9.80;3.60;;;16.40;59.60;;;;;;5009097;28;20037;-69
2021/05/26 10:43:18;;;;;;;8.85;3.90;;;16.60;59.80;;;;;;5026315;28;20037;-74
2021/05/26 10:45:45;;;;;;;9.40;3.85;;;16.00;58.80;;;;;;5020756;28;20041;-72
2021/05/26 10:48:11;;;;;;;11.27;3.65;;;15.60;60.80;;;;;;5020850;28;20033;-71
2021/05/26 10:50:54;;;;;;;10.43;4.10;;;15.60;61.70;;;;;;5021738;28;20412;-71
2021/05/26 10:53:22;;;;;;;12.93;5.03;;;15.10;63.90;;;;;;5021319;28;20170;-71
2021/05/26 10:55:53;;;;;;;10.65;4.75;;;14.80;63.60;;;;;;5012904;28;20393;-71
2021/05/26 10:58:18;;;;;;;10.77;5.18;;;14.60;65.20;;;;;;5022303;28;20034;-70
2021/05/26 11:00:49;;;;;;;12.63;4.70;;;14.60;66.00;;;;;;5024372;28;20045;-71
2021/05/26 11:03:24;;;;;;;10.50;5.13;;;14.60;66.10;;;;;;5003158;28;20038;-74
2021/05/26 11:06:18;;;;;;;13.43;5.40;;;14.80;65.70;;;;;;5000971;28;20402;-70
2021/05/26 11:08:49;;;;;;;8.60;4.25;;;14.60;65.10;;;;;;4997584;28;20038;-71
2021/05/26 11:11:24;;;;;;;8.32;5.03;;;14.30;64.50;;;;;;5000380;28;20069;-71
2021/05/26 11:14:18;;;;;;;8.95;4.95;;;14.40;65.90;;;;;;5000713;28;20038;-70
2021/05/26 11:16:44;;;;;;;10.60;4.70;;;14.40;65.60;;;;;;4998612;28;20092;-69
2021/05/26 11:19:16;;;;;;;10.95;4.47;;;14.60;65.30;;;;;;4999830;28;20429;-70
2021/05/26 11:21:54;;;;;;;10.15;4.30;;;14.60;64.30;;;;;;4997444;28;20086;-72
2021/05/26 11:24:21;;;;;;;10.05;5.53;;;14.60;64.90;;;;;;5001760;28;20568;-70
2021/05/26 11:26:47;;;;;;;9.43;6.03;;;14.50;66.20;;;;;;5009707;28;20076;-71
2021/05/26 11:29:13;;;;;;;10.70;6.05;;;14.60;65.80;;;;;;4997370;28;20031;-70
2021/05/26 11:31:39;;;;;;;10.68;6.75;;;14.60;65.10;;;;;;5022687;28;20490;-70
2021/05/26 11:34:08;;;;;;;9.55;6.40;;;15.10;65.00;;;;;;5012534;28;20081;-70
2021/05/26 11:36:47;;;;;;;10.50;6.60;;;15.90;63.10;;;;;;5021994;28;20033;-70
2021/05/26 11:39:15;;;;;;;10.27;6.70;;;15.80;61.70;;;;;;5019662;28;20478;-72
2021/05/26 11:41:41;;;;;;;9.60;6.35;;;15.70;62.40;;;;;;5022268;28;20535;-72
2021/05/26 11:44:07;;;;;;;8.65;5.75;;;15.70;62.30;;;;;;4999808;28;20033;-73
2021/05/26 11:46:33;;;;;;;10.05;6.45;;;15.60;60.80;;;;;;5030215;28;20515;-71
2021/05/26 11:48:59;;;;;;;10.15;7.40;;;15.10;63.20;;;;;;5022255;28;20097;-73
2021/05/26 11:51:25;;;;;;;11.77;6.90;;;14.90;64.40;;;;;;5019757;28;20030;-73
2021/05/26 11:53:55;;;;;;;8.20;4.43;;;15.50;64.30;;;;;;5018193;28;20048;-73
2021/05/26 11:56:23;;;;;;;7.15;4.00;;;15.60;62.10;;;;;;5000720;28;20041;-74
2021/05/26 11:58:48;;;;;;;6.80;4.13;;;15.40;62.10;;;;;;5012607;28;20056;-72
2021/05/26 12:01:16;;;;;;;7.75;4.55;;;15.40;61.50;;;;;;5020309;28;20042;-72
2021/05/26 12:03:42;;;;;;;9.55;5.95;;;15.50;61.00;;;;;;5022588;28;20485;-71
2021/05/26 12:06:08;;;;;;;10.73;6.63;;;15.10;61.70;;;;;;5019806;28;20073;-72
2021/05/26 12:08:43;;;;;;;12.02;7.68;;;14.80;63.50;;;;;;5012504;28;20038;-71
2021/05/26 12:11:14;;;;;;;11.55;8.43;;;14.70;64.90;;;;;;5024479;28;20394;-71
2021/05/26 12:13:45;;;;;;;12.95;8.70;;;14.60;65.30;;;;;;5028745;28;20057;-72
2021/05/26 12:16:16;;;;;;;12.68;7.88;;;14.40;66.20;;;;;;5026547;28;20552;-72
2021/05/26 12:18:53;;;;;;;13.50;9.20;;;14.50;67.40;;;;;;5018160;28;20034;-73
2021/05/26 12:21:23;;;;;;;13.80;10.05;;;14.40;67.40;;;;;;5004278;28;20034;-71
2021/05/26 12:23:50;;;;;;;13.73;9.50;;;14.20;66.30;;;;;;5001395;28;20048;-71
2021/05/26 12:26:35;;;;;;;12.48;9.07;;;14.20;66.60;;;;;;5010789;28;20404;-70
2021/05/26 12:29:09;;;;;;;11.82;9.15;;;14.20;66.00;;;;;;5015525;28;20037;-73
2021/05/26 12:31:35;;;;;;;16.20;8.80;;;14.50;65.60;;;;;;5021497;28;20572;-71
2021/05/26 12:34:02;;;;;;;12.52;8.95;;;14.70;66.00;;;;;;5018674;28;20034;-72
2021/05/26 12:36:30;;;;;;;11.30;8.48;;;14.90;65.30;;;;;;5017843;28;20034;-71
2021/05/26 12:39:04;;;;;;;13.70;8.70;;;15.10;64.70;;;;;;5020146;28;20102;-72
2021/05/26 12:41:34;;;;;;;;;;;15.30;63.10;;;;;;4998377;28;20065;-73
2021/05/26 12:44:16;;;;;;;11.30;7.65;;;15.50;62.60;;;;;;4997176;28;19917;-71
2021/05/26 12:46:46;;;;;;;11.35;7.95;;;15.50;62.40;;;;;;5020503;28;20029;-73
2021/05/26 12:49:32;;;;;;;10.20;7.90;;;15.50;62.30;;;;;;5019529;28;20038;-72